createdAt,value
2022-09-22T00:01:05.813Z,7.9
2022-09-22T00:03:10.983Z,3.1
2022-09-22T00:05:12.968Z,8.2
2022-09-22T00:07:14.987Z,3
2022-09-22T00:09:17.007Z,5.1
2022-09-22T00:11:19.024Z,4.6
2022-09-22T00:13:21.035Z,4.5
2022-09-22T00:15:23.038Z,6
2022-09-22T00:17:28.289Z,4.1
2022-09-22T00:19:30.288Z,6.4
2022-09-22T00:21:32.299Z,4.2
2022-09-22T00:22:34.932Z,3.9
2022-09-22T00:30:46.228Z,9.5
2022-09-22T00:36:52.257Z,5.3
2022-09-22T00:40:56.276Z,4.1
2022-09-22T00:45:03.540Z,3.2
2022-09-22T00:49:07.607Z,9.3
2022-09-22T00:51:09.529Z,5.1
2022-09-22T00:55:13.543Z,8.5
2022-09-22T00:57:15.569Z,9.2
2022-09-22T00:59:20.798Z,7.5
2022-09-22T01:01:22.926Z,8.1
2022-09-22T01:03:29.050Z,7.2
2022-09-22T01:05:26.829Z,3
2022-09-22T01:07:28.838Z,6.4
2022-09-22T01:09:30.833Z,7.7
2022-09-22T01:11:32.841Z,2.2
2022-09-22T01:13:38.056Z,3.9
2022-09-22T01:15:40.121Z,10.9
2022-09-22T01:17:42.093Z,8.4
2022-09-22T01:18:44.705Z,4.6
2022-09-22T01:26:56.009Z,6.4
2022-09-22T01:31:00.076Z,3
2022-09-22T01:33:02.046Z,1.2
2022-09-22T01:35:04.039Z,1.8
2022-09-22T01:37:06.046Z,2.8
2022-09-22T01:39:08.054Z,3.3
2022-09-22T01:41:13.300Z,2
2022-09-22T01:43:15.279Z,1.6
2022-09-22T01:45:17.306Z,1.7
2022-09-22T01:47:19.307Z,2.6
2022-09-22T01:49:21.329Z,2.8
2022-09-22T01:51:23.317Z,8.7
2022-09-22T01:53:25.335Z,2.3
2022-09-22T01:55:30.558Z,5.9
2022-09-22T01:59:34.592Z,3.5
2022-09-22T02:01:36.724Z,8.3
2022-09-22T02:03:38.586Z,1.2
2022-09-22T02:05:40.584Z,10.5
2022-09-22T02:07:42.569Z,1.5
2022-09-22T02:09:47.818Z,5.7
2022-09-22T02:16:20.779Z,6.4
2022-09-22T02:20:24.706Z,4.7
2022-09-22T02:22:29.943Z,9
2022-09-22T02:24:31.955Z,2.9
2022-09-22T02:26:34.001Z,1
2022-09-22T02:28:36.002Z,4.7
2022-09-22T02:30:37.954Z,5.8
2022-09-22T02:32:39.956Z,1.7
2022-09-22T02:34:41.991Z,3.8
2022-09-22T02:36:47.203Z,2.9
2022-09-22T02:38:49.195Z,4.4
2022-09-22T02:42:53.193Z,1.6
2022-09-22T02:44:55.186Z,3.3
2022-09-22T02:46:57.160Z,4.3
2022-09-22T02:48:59.183Z,4.4
2022-09-22T02:51:04.391Z,2.3
2022-09-22T02:53:06.396Z,4.2
2022-09-22T02:55:08.398Z,4.1
2022-09-22T02:57:10.385Z,2.2
2022-09-22T02:59:12.450Z,6
2022-09-22T03:01:14.547Z,5.9
2022-09-22T03:03:16.381Z,6.5
2022-09-22T03:05:21.597Z,6.3
2022-09-22T03:07:23.607Z,7.2
2022-09-22T03:09:25.580Z,2.8
2022-09-22T03:10:28.196Z,1.8
2022-09-22T03:12:30.209Z,2.3
2022-09-22T03:14:32.209Z,2.9
2022-09-22T03:16:34.167Z,2.4
2022-09-22T03:18:39.419Z,2.5
2022-09-22T03:20:41.448Z,3.5
2022-09-22T03:22:43.437Z,8.2
2022-09-22T03:24:45.409Z,3.4
2022-09-22T03:26:47.417Z,2.3
2022-09-22T03:28:49.395Z,5.2
2022-09-22T03:30:51.470Z,3.7
2022-09-22T03:34:58.686Z,6.4
2022-09-22T03:37:00.697Z,3.6
2022-09-22T03:39:02.667Z,4.6
2022-09-22T03:41:04.696Z,10.3
2022-09-22T03:43:06.673Z,3
2022-09-22T03:45:08.677Z,4.1
2022-09-22T03:47:13.923Z,3.4
2022-09-22T03:49:15.907Z,2.2
2022-09-22T03:51:17.904Z,3.1
2022-09-22T03:53:19.912Z,3
2022-09-22T03:55:21.914Z,2.8
2022-09-22T03:57:23.919Z,7.3
2022-09-22T03:59:25.924Z,3
2022-09-22T04:01:31.156Z,8.3
2022-09-22T04:03:33.147Z,1.8
2022-09-22T04:05:35.136Z,4.1
2022-09-22T04:06:37.735Z,6.6
2022-09-22T04:08:39.740Z,6.3
2022-09-22T04:10:41.733Z,4.4
2022-09-22T04:12:43.721Z,4.2
2022-09-22T04:14:48.937Z,3.2
2022-09-22T04:18:52.910Z,5.3
2022-09-22T04:20:54.912Z,2.6
2022-09-22T04:22:56.919Z,4.1
2022-09-22T04:24:58.891Z,3.1
2022-09-22T04:27:20.050Z,6.7
2022-09-22T04:29:06.110Z,3.5
2022-09-22T04:31:08.123Z,4.5
2022-09-22T04:33:10.103Z,3.2
2022-09-22T04:37:14.049Z,3.5
2022-09-22T04:43:23.214Z,7.4
2022-09-22T04:47:27.191Z,3.8
2022-09-22T04:49:29.185Z,10.6
2022-09-22T04:53:33.147Z,3.9
2022-09-22T04:55:35.134Z,5
2022-09-22T04:59:43.841Z,10
2022-09-22T05:01:45.929Z,3.2
2022-09-22T05:02:48.465Z,3.2
2022-09-22T05:04:50.419Z,6.6
2022-09-22T05:06:52.419Z,4.4
2022-09-22T05:08:54.399Z,9.2
2022-09-22T05:17:05.565Z,6
2022-09-22T05:19:07.576Z,6.6
2022-09-22T05:25:16.716Z,3.2
2022-09-22T05:27:18.704Z,4
2022-09-22T05:29:23.550Z,12.2
2022-09-22T05:31:22.737Z,9
2022-09-22T05:33:24.682Z,4.2
2022-09-22T05:35:26.835Z,5.3
2022-09-22T05:37:28.659Z,4.9
2022-09-22T05:39:33.857Z,8.4
2022-09-22T05:41:35.865Z,10.9
2022-09-22T05:43:37.867Z,5
2022-09-22T05:45:39.879Z,7.2
2022-09-22T05:47:41.836Z,5
2022-09-22T05:51:45.770Z,5.3
2022-09-22T05:53:50.998Z,5
2022-09-22T05:55:53.003Z,6.1
2022-09-22T05:57:54.966Z,12.3
2022-09-22T06:00:23.885Z,13
2022-09-22T06:02:26.635Z,7.6
2022-09-22T06:04:27.890Z,7.3
2022-09-22T06:06:33.074Z,14.5
2022-09-22T06:08:35.078Z,11.4
2022-09-22T06:10:37.071Z,32.3
2022-09-22T06:12:39.032Z,10
2022-09-22T06:14:41.055Z,9.6
2022-09-22T06:16:43.108Z,8.8
2022-09-22T06:18:45.041Z,12
2022-09-22T06:20:50.252Z,11.4
2022-09-22T06:22:52.283Z,6.9
2022-09-22T06:24:54.292Z,19.2
2022-09-22T06:26:56.295Z,9.7
2022-09-22T06:28:58.307Z,10.3
2022-09-22T06:31:00.311Z,7.4
2022-09-22T06:35:07.605Z,12.3
2022-09-22T06:39:11.600Z,9.7
2022-09-22T06:41:13.656Z,8.6
2022-09-22T06:43:15.658Z,6.4
2022-09-22T06:45:17.702Z,4.9
2022-09-22T06:47:19.701Z,12.6
2022-09-22T06:49:24.925Z,6.5
2022-09-22T06:51:26.974Z,6
2022-09-22T06:53:29.003Z,22.2
2022-09-22T06:54:31.631Z,5.9
2022-09-22T06:56:35.948Z,7.4
2022-09-22T06:58:58.635Z,6.7
2022-09-22T07:00:37.727Z,6.5
2022-09-22T07:02:42.935Z,14.8
2022-09-22T07:04:44.965Z,15.3
2022-09-22T07:06:46.990Z,9.7
2022-09-22T07:08:49.006Z,12.2
2022-09-22T07:10:51.038Z,7.9
2022-09-22T07:12:53.065Z,9.9
2022-09-22T07:14:55.088Z,15.2
2022-09-22T07:19:02.361Z,8.3
2022-09-22T07:21:04.363Z,16.2
2022-09-22T07:23:06.407Z,9.8
2022-09-22T07:25:08.431Z,11.4
2022-09-22T07:29:12.443Z,17.9
2022-09-22T07:31:17.444Z,20.5
2022-09-22T07:33:19.438Z,12
2022-09-22T07:39:25.518Z,12.2
2022-09-22T07:41:27.567Z,16
2022-09-22T07:43:29.589Z,10.2
2022-09-22T07:45:34.835Z,11.1
2022-09-22T07:47:36.841Z,9.3
2022-09-22T07:49:38.856Z,10.7
2022-09-22T07:50:41.514Z,13.5
2022-09-22T07:52:43.538Z,20.4
2022-09-22T07:54:45.563Z,14.5
2022-09-22T07:56:47.596Z,12.1
2022-09-22T07:58:52.840Z,12.3
2022-09-22T08:00:54.924Z,8.2
2022-09-22T08:02:56.865Z,14.9
2022-09-22T08:04:58.915Z,14.5
2022-09-22T08:07:00.930Z,18.8
2022-09-22T08:09:02.971Z,24.2
2022-09-22T08:11:05.015Z,12.4
2022-09-22T08:13:10.271Z,22.9
2022-09-22T08:17:14.334Z,17.3
2022-09-22T08:19:16.336Z,11.6
2022-09-22T08:21:18.366Z,17.5
2022-09-22T08:23:20.296Z,17.4
2022-09-22T08:25:22.224Z,11.9
2022-09-22T08:27:27.364Z,13.3
2022-09-22T08:29:29.406Z,13
2022-09-22T08:31:31.377Z,13.3
2022-09-22T08:33:33.313Z,10.4
2022-09-22T08:35:35.300Z,10.3
2022-09-22T08:37:37.323Z,12.2
2022-09-22T08:39:39.352Z,8.3
2022-09-22T08:41:44.407Z,20
2022-09-22T08:43:46.348Z,9.3
2022-09-22T08:45:48.258Z,12.6
2022-09-22T08:46:50.834Z,16.1
2022-09-22T08:48:53.105Z,11.4
2022-09-22T08:50:55.044Z,7.9
2022-09-22T08:52:56.922Z,9.4
2022-09-22T08:55:01.968Z,17.7
2022-09-22T08:57:03.901Z,9.7
2022-09-22T08:59:05.830Z,15.8
2022-09-22T09:01:07.731Z,10.5
2022-09-22T09:03:09.740Z,14.6
2022-09-22T09:05:11.558Z,12.5
2022-09-22T09:07:13.456Z,6.9
2022-09-22T09:09:18.509Z,7.9
2022-09-22T09:11:20.490Z,10
2022-09-22T09:13:22.381Z,13.8
2022-09-22T09:15:24.261Z,7.8
2022-09-22T09:17:26.174Z,9.4
2022-09-22T09:19:28.073Z,11.1
2022-09-22T09:21:30.017Z,5.2
2022-09-22T09:25:36.963Z,9.2
2022-09-22T09:27:38.878Z,9.8
2022-09-22T09:29:40.768Z,7.1
2022-09-22T09:31:42.712Z,7.7
2022-09-22T09:35:46.459Z,5.7
2022-09-22T09:44:23.779Z,5.6
2022-09-22T09:46:25.709Z,7.4
2022-09-22T09:48:27.542Z,8.9
2022-09-22T09:50:32.696Z,14.8
2022-09-22T09:52:35.220Z,6.9
2022-09-22T09:54:37.093Z,6.5
2022-09-22T09:56:39.009Z,7.4
2022-09-22T09:58:40.846Z,5.4
2022-09-22T10:00:42.730Z,6.1
2022-09-22T10:02:44.619Z,8.1
2022-09-22T10:04:49.632Z,7
2022-09-22T10:12:57.187Z,6.6
2022-09-22T10:14:59.087Z,11.3
2022-09-22T10:17:00.976Z,9.1
2022-09-22T10:19:06.013Z,9.7
2022-09-22T10:21:07.879Z,19.1
2022-09-22T10:23:09.775Z,7.5
2022-09-22T10:25:11.633Z,19.4
2022-09-22T10:27:13.533Z,7
2022-09-22T10:29:15.404Z,6.1
2022-09-22T10:31:17.409Z,5.6
2022-09-22T10:33:22.307Z,7
2022-09-22T10:35:24.201Z,8.8
2022-09-22T10:37:26.097Z,7.8
2022-09-22T10:38:28.665Z,5.9
2022-09-22T10:40:30.540Z,8.5
2022-09-22T10:42:32.362Z,10.8
2022-09-22T10:44:38.932Z,11.3
2022-09-22T10:46:39.355Z,9.3
2022-09-22T10:48:42.724Z,9
2022-09-22T10:50:44.546Z,11.3
2022-09-22T10:52:46.400Z,11.6
2022-09-22T10:54:48.285Z,7.1
2022-09-22T10:56:50.177Z,7.5
2022-09-22T10:58:52.049Z,11.3
2022-09-22T11:00:57.073Z,7.5
2022-09-22T11:02:58.914Z,11.2
2022-09-22T11:05:00.864Z,3.1
2022-09-22T11:07:02.661Z,6.4
2022-09-22T11:09:04.524Z,12.6
2022-09-22T11:11:06.410Z,4.8
2022-09-22T11:13:08.254Z,4.7
2022-09-22T11:15:13.428Z,4
2022-09-22T11:21:18.872Z,1.5
2022-09-22T11:23:20.749Z,6
2022-09-22T11:27:24.495Z,4.9
2022-09-22T11:29:29.485Z,4.1
2022-09-22T11:31:31.361Z,3.5
2022-09-22T11:33:33.212Z,3.5
2022-09-22T11:34:35.731Z,5.6
2022-09-22T11:36:37.584Z,2.4
2022-09-22T11:38:39.446Z,2.8
2022-09-22T11:40:41.449Z,6.6
2022-09-22T11:42:46.346Z,2.5
2022-09-22T11:44:48.185Z,3.7
2022-09-22T11:46:50.064Z,3
2022-09-22T11:48:51.928Z,2.3
2022-09-22T11:50:53.789Z,3.8
2022-09-22T11:52:58.487Z,6.3
2022-09-22T11:55:00.541Z,2
2022-09-22T11:57:02.540Z,2.1
2022-09-22T11:59:04.394Z,5
2022-09-22T12:01:10.865Z,2.4
2022-09-22T12:03:08.221Z,4.5
2022-09-22T12:05:10.002Z,4.2
2022-09-22T12:07:11.870Z,9.7
2022-09-22T12:09:13.743Z,4.7
2022-09-22T12:11:18.753Z,4.7
2022-09-22T12:13:20.605Z,2.2
2022-09-22T12:15:22.493Z,2.9
2022-09-22T12:19:26.205Z,8.1
2022-09-22T12:21:28.064Z,11.3
2022-09-22T12:23:29.902Z,7.5
2022-09-22T12:25:48.057Z,5.5
2022-09-22T12:27:36.777Z,2.6
2022-09-22T12:29:38.631Z,4.1
2022-09-22T12:30:41.194Z,7
2022-09-22T12:32:43.015Z,4
2022-09-22T12:38:51.644Z,8.5
2022-09-22T12:40:53.495Z,5.2
2022-09-22T12:42:55.331Z,2.3
2022-09-22T12:44:57.182Z,8.4
2022-09-22T12:46:59.054Z,11.2
2022-09-22T12:49:00.960Z,5.4
2022-09-22T12:51:02.758Z,5.3
2022-09-22T12:55:09.624Z,3.7
2022-09-22T12:57:11.469Z,5.2
2022-09-22T12:59:13.330Z,2.5
2022-09-22T13:01:15.298Z,4.9
2022-09-22T13:03:17.042Z,2.9
2022-09-22T13:05:18.906Z,2.3
2022-09-22T13:07:23.920Z,3.4
2022-09-22T13:09:25.771Z,7.7
2022-09-22T13:11:27.618Z,4.8
2022-09-22T13:13:29.483Z,5.1
2022-09-22T13:15:31.306Z,2.9
2022-09-22T13:17:33.185Z,5.7
2022-09-22T13:19:35.021Z,6.5
2022-09-22T13:21:40.020Z,5.7
2022-09-22T13:23:41.892Z,8.9
2022-09-22T13:25:43.737Z,8.3
2022-09-22T13:28:12.144Z,3.3
2022-09-22T13:30:13.988Z,4.5
2022-09-22T13:32:18.632Z,6.2
2022-09-22T13:34:20.830Z,4.9
2022-09-22T13:36:22.687Z,3.3
2022-09-22T13:38:24.540Z,5.6
2022-09-22T13:40:26.457Z,8
2022-09-22T13:42:28.208Z,4
2022-09-22T13:44:30.091Z,5.5
2022-09-22T13:46:31.915Z,5.4
2022-09-22T13:48:36.915Z,4.9
2022-09-22T13:50:38.762Z,5.6
2022-09-22T13:52:40.605Z,7.3
2022-09-22T13:54:42.456Z,9.5
2022-09-22T13:56:44.287Z,7
2022-09-22T14:02:53.043Z,11.6
2022-09-22T14:08:58.518Z,4.3
2022-09-22T14:11:00.378Z,3.3
2022-09-22T14:17:09.318Z,6.6
2022-09-22T14:22:15.503Z,4
2022-09-22T14:24:17.340Z,3.1
2022-09-22T14:26:19.194Z,7.1
2022-09-22T14:28:21.044Z,4.3
2022-09-22T14:32:27.895Z,2.5
2022-09-22T14:34:29.720Z,2
2022-09-22T14:36:31.578Z,6.6
2022-09-22T14:38:33.398Z,2.9
2022-09-22T14:40:35.423Z,4.5
2022-09-22T14:42:37.118Z,4.9
2022-09-22T14:44:42.104Z,4.4
2022-09-22T14:46:43.949Z,5.5
2022-09-22T14:50:47.640Z,8.4
2022-09-22T14:52:49.496Z,3.9
2022-09-22T14:54:51.336Z,2.4
2022-09-22T14:56:53.176Z,4.4
2022-09-22T14:58:58.181Z,6.3
2022-09-22T15:01:00.048Z,6.7
2022-09-22T15:03:01.849Z,9.8
2022-09-22T15:07:05.340Z,4.3
2022-09-22T15:09:07.255Z,4.5
2022-09-22T15:11:09.015Z,7.3
2022-09-22T15:13:14.007Z,3.5
2022-09-22T15:17:17.701Z,5.1
2022-09-22T15:18:20.187Z,8.6
2022-09-22T15:20:22.043Z,5.6
2022-09-22T15:24:25.716Z,4.4
2022-09-22T15:26:30.729Z,6.1
2022-09-22T15:28:32.594Z,4.6
2022-09-22T15:30:34.448Z,5.2
2022-09-22T15:34:38.151Z,3.9
2022-09-22T15:36:40.012Z,8.4
2022-09-22T15:38:41.860Z,3.4
2022-09-22T15:43:11.172Z,2.8
2022-09-22T16:22:36.221Z,11.2
2022-09-22T16:24:38.085Z,6.5
2022-09-22T16:26:39.970Z,2.5
2022-09-22T16:28:41.825Z,9.6
2022-09-22T16:30:43.702Z,10.1
2022-09-22T16:32:45.584Z,3.3
2022-09-22T16:34:47.423Z,7.7
2022-09-22T16:36:52.459Z,3.2
2022-09-22T16:38:54.300Z,8.2
2022-09-22T16:40:57.753Z,10.4
2022-09-22T16:42:59.595Z,4.3
2022-09-22T16:45:01.422Z,7.9
2022-09-22T16:47:03.337Z,2.3
2022-09-22T16:49:05.360Z,2.7
2022-09-22T16:51:10.192Z,10.9
2022-09-22T16:53:12.050Z,4.7
2022-09-22T16:55:13.931Z,8.7
2022-09-22T16:57:15.806Z,5.7
2022-09-22T16:59:17.685Z,4.4
2022-09-22T17:01:20.201Z,4.9
2022-09-22T17:07:28.325Z,13.1
2022-09-22T17:11:58.714Z,6.8
2022-09-22T17:14:00.576Z,8.4
2022-09-22T17:16:02.579Z,4.4
2022-09-22T17:18:07.493Z,10
2022-09-22T17:20:09.379Z,5.6
2022-09-22T17:22:11.249Z,13.1
2022-09-22T17:24:13.141Z,5.6
2022-09-22T17:26:15.014Z,5.5
2022-09-22T17:28:16.871Z,12.8
2022-09-22T17:30:18.763Z,12
2022-09-22T17:32:23.799Z,7.2
2022-09-22T17:34:25.667Z,4.8
2022-09-22T17:36:27.550Z,4.8
2022-09-22T17:38:29.429Z,8.8
2022-09-22T17:40:31.357Z,8.4
2022-09-22T17:44:35.115Z,10.1
2022-09-22T17:46:40.212Z,6.2
2022-09-22T17:48:42.046Z,6.1
2022-09-22T17:50:43.923Z,7.6
2022-09-22T17:52:45.815Z,8.6
2022-09-22T17:54:47.706Z,9.2
2022-09-22T17:56:49.601Z,14.9
2022-09-22T17:58:51.503Z,16.9
2022-09-22T18:00:56.541Z,6.5
2022-09-22T18:02:58.514Z,8.8
2022-09-22T18:05:00.320Z,10.2
2022-09-22T18:06:02.843Z,19
2022-09-22T18:08:04.739Z,8.3
2022-09-22T18:10:06.654Z,9.9
2022-09-22T18:12:08.536Z,14.4
2022-09-22T18:14:13.570Z,10.9
2022-09-22T18:16:15.524Z,11.8
2022-09-22T18:22:21.237Z,15.7
2022-09-22T18:24:23.072Z,9.5
2022-09-22T18:26:24.965Z,13
2022-09-22T18:28:30.023Z,15.2
2022-09-22T18:30:31.919Z,14.4
2022-09-22T18:32:33.807Z,13.9
2022-09-22T18:34:35.702Z,11.2
2022-09-22T18:36:37.605Z,8.4
2022-09-22T18:38:39.513Z,12
2022-09-22T18:40:41.456Z,10.8
2022-09-22T18:42:46.536Z,10.7
2022-09-22T18:44:48.440Z,11.8
2022-09-22T18:46:50.434Z,13.9
2022-09-22T18:48:52.243Z,12.4
2022-09-22T18:50:54.182Z,13
2022-09-22T18:52:56.059Z,17.7
2022-09-22T18:57:03.003Z,13.9
2022-09-22T18:59:04.902Z,17.2
2022-09-22T19:01:06.820Z,17.2
2022-09-22T19:02:11.706Z,15.4
2022-09-22T19:04:11.240Z,16.8
2022-09-22T19:06:13.138Z,19.4
2022-09-22T19:08:15.053Z,23.5
2022-09-22T19:10:20.111Z,18.3
2022-09-22T19:12:22.028Z,20.9
2022-09-22T19:14:23.949Z,15.4
2022-09-22T19:16:25.959Z,17.6
2022-09-22T19:18:27.798Z,15.5
2022-09-22T19:20:29.723Z,40.6
2022-09-22T19:22:31.634Z,17.8
2022-09-22T19:24:36.686Z,37.9
2022-09-22T19:26:38.621Z,24.6
2022-09-22T19:28:40.513Z,19
2022-09-22T19:30:42.452Z,20.8
2022-09-22T19:32:44.325Z,17.3
2022-09-22T19:34:46.264Z,31.7
2022-09-22T19:36:48.143Z,27.5
2022-09-22T19:38:53.218Z,23.6
2022-09-22T19:40:55.130Z,23
2022-09-22T19:42:57.023Z,24.4
2022-09-22T19:44:58.970Z,17.3
2022-09-22T19:47:00.878Z,30.5
2022-09-22T19:49:02.792Z,24.7
2022-09-22T19:51:04.711Z,24.9
2022-09-22T19:53:09.771Z,27.4
2022-09-22T19:55:11.855Z,19.6
2022-09-22T19:57:13.583Z,20
2022-09-22T19:58:16.150Z,20
2022-09-22T20:00:18.075Z,25.7
2022-09-22T20:02:19.950Z,23.6
2022-09-22T20:04:21.882Z,18.9
2022-09-22T20:06:26.965Z,15.5
2022-09-22T20:08:28.864Z,19.5
2022-09-22T20:10:30.827Z,16.2
2022-09-22T20:12:32.750Z,15.5
2022-09-22T20:14:34.643Z,13.9
2022-09-22T20:16:36.569Z,18.6
2022-09-22T20:18:41.364Z,14.2
2022-09-22T20:20:43.554Z,20.8
2022-09-22T20:22:45.494Z,14.6
2022-09-22T20:24:47.415Z,10.7
2022-09-22T20:26:49.333Z,9.9
2022-09-22T20:28:51.296Z,17.8
2022-09-22T20:30:53.245Z,15.2
2022-09-22T20:32:55.124Z,10.7
2022-09-22T20:35:00.195Z,15.2
2022-09-22T20:37:02.129Z,13.4
2022-09-22T20:39:04.080Z,11.3
2022-09-22T20:41:05.999Z,14.1
2022-09-22T20:43:08.046Z,22.4
2022-09-22T20:47:11.999Z,16.9
2022-09-22T20:49:17.174Z,20.2
2022-09-22T20:51:19.077Z,20.6
2022-09-22T20:53:21.146Z,22
2022-09-22T20:55:49.740Z,35.4
2022-09-22T20:57:51.679Z,22.7
2022-09-22T20:59:53.715Z,17.9
2022-09-22T21:01:58.813Z,39.7
2022-09-22T21:04:00.831Z,19.4
2022-09-22T21:06:02.731Z,20.7
2022-09-22T21:08:04.679Z,16.2
2022-09-22T21:10:06.605Z,20.9
2022-09-22T21:12:08.645Z,13.9
2022-09-22T21:14:10.674Z,14.7
2022-09-22T21:16:15.840Z,14.7
2022-09-22T21:18:17.791Z,19.7
2022-09-22T21:20:19.723Z,14
2022-09-22T21:22:21.647Z,17.2
2022-09-22T21:24:23.571Z,22.7
2022-09-22T21:26:25.490Z,14.5
2022-09-22T21:28:27.541Z,10.8
2022-09-22T21:30:32.615Z,12.7
2022-09-22T21:34:36.574Z,18.6
2022-09-22T21:36:38.593Z,18.3
2022-09-22T21:38:40.567Z,15.5
2022-09-22T21:44:49.708Z,18.4
2022-09-22T21:46:51.741Z,14.4
2022-09-22T21:48:53.743Z,33.2
2022-09-22T21:49:56.386Z,14
2022-09-22T21:51:58.415Z,19.4
2022-09-22T21:54:00.440Z,13.8
2022-09-22T21:56:02.485Z,26.6
2022-09-22T21:58:07.682Z,16.4
2022-09-22T22:00:09.718Z,17.7
2022-09-22T22:02:11.639Z,14.5
2022-09-22T22:04:13.631Z,18.9
2022-09-22T22:06:15.606Z,13.2
2022-09-22T22:08:17.650Z,27.4
2022-09-22T22:10:19.576Z,17.5
2022-09-22T22:12:24.633Z,13.7
2022-09-22T22:14:26.567Z,13.2
2022-09-22T22:16:28.606Z,24.8
2022-09-22T22:18:30.551Z,19.1
2022-09-22T22:20:32.485Z,16.3
2022-09-22T22:24:36.352Z,16
2022-09-22T22:26:41.410Z,11.2
2022-09-22T22:32:48.989Z,11.5
2022-09-22T22:34:50.959Z,14.6
2022-09-22T22:41:00.325Z,19.1
2022-09-22T22:43:02.328Z,13.5
2022-09-22T22:46:07.052Z,13.9
2022-09-22T22:48:09.054Z,13.6
2022-09-22T22:52:12.917Z,14.4
2022-09-22T22:54:18.215Z,19
2022-09-22T22:58:22.236Z,11.8
2022-09-22T23:02:26.316Z,13
2022-09-22T23:04:28.340Z,19.1
2022-09-22T23:06:30.413Z,12.9
2022-09-22T23:08:35.673Z,11.7
2022-09-22T23:10:37.678Z,16.2
2022-09-22T23:12:39.716Z,16.1
2022-09-22T23:14:41.817Z,20.8
2022-09-22T23:16:43.800Z,16.1
2022-09-22T23:18:45.817Z,13.2
2022-09-22T23:20:47.886Z,11.3
2022-09-22T23:22:53.125Z,17.8
2022-09-22T23:24:55.170Z,18.9
2022-09-22T23:26:57.173Z,16.5
2022-09-22T23:28:59.266Z,12.6
2022-09-22T23:31:01.217Z,10.7
2022-09-22T23:33:03.140Z,18.6
2022-09-22T23:35:05.195Z,16.1
2022-09-22T23:37:10.487Z,16.3
2022-09-22T23:39:12.558Z,10.5
2022-09-22T23:41:14.575Z,14.2
2022-09-22T23:42:17.211Z,15.3
2022-09-22T23:44:19.223Z,12.8
2022-09-22T23:46:21.418Z,14.1
2022-09-22T23:48:23.308Z,14.1
2022-09-22T23:52:30.589Z,22.6
2022-09-22T23:54:32.617Z,15.3
2022-09-22T23:56:34.649Z,13.6
2022-09-22T23:58:36.696Z,10.4
